createdAt,value
2023-08-16T00:01:04.697Z,73.25
2023-08-16T00:03:33.725Z,73.39
2023-08-16T00:06:10.540Z,73.23
2023-08-16T00:08:39.143Z,73.16
2023-08-16T00:11:07.542Z,73.05
2023-08-16T00:13:35.139Z,73.48
2023-08-16T00:16:05.161Z,73.63
2023-08-16T00:18:33.515Z,73.76
2023-08-16T00:21:02.439Z,73.33
2023-08-16T00:23:31.115Z,73.66
2023-08-16T00:25:59.528Z,73.66
2023-08-16T00:28:28.668Z,73.56
2023-08-16T00:30:58.092Z,73.73
2023-08-16T00:33:27.784Z,73.82
2023-08-16T00:35:56.086Z,73.86
2023-08-16T00:38:24.565Z,74.22
2023-08-16T00:40:53.584Z,73.96
2023-08-16T00:43:22.376Z,73.99
2023-08-16T00:45:51.394Z,74.07
2023-08-16T00:48:22.466Z,73.96
2023-08-16T00:50:52.498Z,74.12
2023-08-16T00:53:21.229Z,73.75
2023-08-16T00:55:49.662Z,73.78
2023-08-16T00:58:18.781Z,74.02
2023-08-16T01:00:47.133Z,74.09
2023-08-16T01:03:15.460Z,73.90
2023-08-16T01:05:43.836Z,74.06
2023-08-16T01:08:13.824Z,74.50
2023-08-16T01:10:52.881Z,74.14
2023-08-16T01:13:27.075Z,74.29
2023-08-16T01:15:59.183Z,74.19
2023-08-16T01:18:29.420Z,74.30
2023-08-16T01:20:58.490Z,74.49
2023-08-16T01:23:38.494Z,74.16
2023-08-16T01:26:17.518Z,74.27
2023-08-16T01:28:49.574Z,73.89
2023-08-16T01:31:18.902Z,74.09
2023-08-16T01:33:47.350Z,74.24
2023-08-16T01:36:15.731Z,74.29
2023-08-16T01:38:45.786Z,74.71
2023-08-16T01:41:27.786Z,74.33
2023-08-16T01:43:59.128Z,74.77
2023-08-16T01:46:29.987Z,74.73
2023-08-16T01:49:00.554Z,74.87
2023-08-16T01:51:29.145Z,74.61
2023-08-16T01:53:57.678Z,74.67
2023-08-16T01:56:25.986Z,74.76
2023-08-16T01:58:54.325Z,74.81
2023-08-16T02:01:24.077Z,74.60
2023-08-16T02:03:54.328Z,74.66
2023-08-16T02:06:24.272Z,74.95
2023-08-16T02:08:53.395Z,74.68
2023-08-16T02:11:22.106Z,74.89
2023-08-16T02:13:50.468Z,74.71
2023-08-16T02:16:18.965Z,74.75
2023-08-16T02:18:48.813Z,74.63
2023-08-16T02:21:17.072Z,74.91
2023-08-16T02:23:45.454Z,75.00
2023-08-16T02:26:14.715Z,74.59
2023-08-16T02:28:43.139Z,74.95
2023-08-16T02:31:11.397Z,74.94
2023-08-16T02:33:39.830Z,74.83
2023-08-16T02:36:09.485Z,74.63
2023-08-16T02:38:37.807Z,74.66
2023-08-16T02:41:06.362Z,74.74
2023-08-16T02:43:34.678Z,74.92
2023-08-16T02:46:03.370Z,74.87
2023-08-16T02:48:33.638Z,74.91
2023-08-16T02:51:02.570Z,75.31
2023-08-16T02:53:32.367Z,75.33
2023-08-16T02:56:00.627Z,75.43
2023-08-16T02:58:30.367Z,75.39
2023-08-16T03:00:58.776Z,75.39
2023-08-16T03:03:27.116Z,75.51
2023-08-16T03:05:56.419Z,75.60
2023-08-16T03:08:25.666Z,75.69
2023-08-16T03:10:55.349Z,75.74
2023-08-16T03:13:23.675Z,75.86
2023-08-16T03:15:51.996Z,76.01
2023-08-16T03:18:20.342Z,76.13
2023-08-16T03:20:48.777Z,76.15
2023-08-16T03:23:17.088Z,76.18
2023-08-16T03:25:45.624Z,76.22
2023-08-16T03:28:15.697Z,76.23
2023-08-16T03:30:44.037Z,76.42
2023-08-16T03:33:13.468Z,76.34
2023-08-16T03:35:42.825Z,76.33
2023-08-16T03:38:11.652Z,76.18
2023-08-16T03:40:40.453Z,75.97
2023-08-16T03:43:08.834Z,75.66
2023-08-16T03:45:39.389Z,75.54
2023-08-16T03:48:08.085Z,75.84
2023-08-16T03:50:36.458Z,75.71
2023-08-16T03:53:06.028Z,75.71
2023-08-16T03:55:34.265Z,75.37
2023-08-16T03:58:02.624Z,75.54
2023-08-16T04:00:30.888Z,75.71
2023-08-16T04:03:01.908Z,75.72
2023-08-16T04:05:30.545Z,75.74
2023-08-16T04:07:58.981Z,75.90
2023-08-16T04:10:27.315Z,75.63
2023-08-16T04:12:56.179Z,75.99
2023-08-16T04:15:24.939Z,76.01
2023-08-16T04:17:53.408Z,76.39
2023-08-16T04:20:23.353Z,76.45
2023-08-16T04:22:51.840Z,75.98
2023-08-16T04:25:20.860Z,76.24
2023-08-16T04:27:49.225Z,76.14
2023-08-16T04:30:17.932Z,75.88
2023-08-16T04:32:46.304Z,75.86
2023-08-16T04:35:14.807Z,75.80
2023-08-16T04:37:45.222Z,75.72
2023-08-16T04:40:14.411Z,76.04
2023-08-16T04:42:42.668Z,76.25
2023-08-16T04:45:12.118Z,75.89
2023-08-16T04:47:40.624Z,76.13
2023-08-16T04:50:09.567Z,76.17
2023-08-16T04:52:39.031Z,76.53
2023-08-16T04:55:10.195Z,76.69
2023-08-16T04:57:39.721Z,77.09
2023-08-16T05:00:10.302Z,76.90
2023-08-16T05:02:45.797Z,77.07
2023-08-16T05:05:15.322Z,76.84
2023-08-16T05:07:43.710Z,76.76
2023-08-16T05:10:15.353Z,76.58
2023-08-16T05:12:44.082Z,76.36
2023-08-16T05:15:13.421Z,76.69
2023-08-16T05:17:41.818Z,76.53
2023-08-16T05:20:12.454Z,76.58
2023-08-16T05:22:40.798Z,76.59
2023-08-16T05:25:10.352Z,76.69
2023-08-16T05:27:40.357Z,76.68
2023-08-16T05:30:09.717Z,76.51
2023-08-16T05:32:38.027Z,76.43
2023-08-16T05:35:07.104Z,76.25
2023-08-16T05:37:35.670Z,76.26
2023-08-16T05:40:07.025Z,76.19
2023-08-16T05:42:35.423Z,75.99
2023-08-16T05:45:07.862Z,75.84
2023-08-16T05:47:35.899Z,76.32
2023-08-16T05:50:04.435Z,76.08
2023-08-16T05:52:32.782Z,75.97
2023-08-16T05:55:01.038Z,75.96
2023-08-16T05:57:29.358Z,76.24
2023-08-16T05:59:57.739Z,76.56
2023-08-16T06:02:27.796Z,76.62
2023-08-16T06:04:56.364Z,76.73
2023-08-16T06:07:24.826Z,76.82
2023-08-16T06:09:53.804Z,76.85
2023-08-16T06:12:22.080Z,77.36
2023-08-16T06:14:50.440Z,77.27
2023-08-16T06:17:18.745Z,77.20
2023-08-16T06:19:48.758Z,77.35
2023-08-16T06:22:17.144Z,77.50
2023-08-16T06:24:45.449Z,77.68
2023-08-16T06:27:13.856Z,77.04
2023-08-16T06:29:42.083Z,76.00
2023-08-16T06:32:10.416Z,75.63
2023-08-16T06:34:39.566Z,75.58
2023-08-16T06:37:09.245Z,75.39
2023-08-16T06:39:37.633Z,75.13
2023-08-16T06:42:06.544Z,75.46
2023-08-16T06:44:35.766Z,76.43
2023-08-16T06:47:04.074Z,77.09
2023-08-16T06:49:32.723Z,77.40
2023-08-16T06:52:01.043Z,77.68
2023-08-16T06:54:30.787Z,77.44
2023-08-16T06:57:00.005Z,77.39
2023-08-16T06:59:31.237Z,77.69
2023-08-16T07:02:00.216Z,77.28
2023-08-16T07:04:28.580Z,77.37
2023-08-16T07:06:56.828Z,77.64
2023-08-16T07:09:25.544Z,77.69
2023-08-16T07:11:55.152Z,77.99
2023-08-16T07:14:23.559Z,78.29
2023-08-16T07:16:52.745Z,78.50
2023-08-16T07:19:21.997Z,78.58
2023-08-16T07:21:50.505Z,78.60
2023-08-16T07:24:18.796Z,78.65
2023-08-16T07:26:47.107Z,79.01
2023-08-16T07:29:16.988Z,79.26
2023-08-16T07:31:45.737Z,79.59
2023-08-16T07:34:14.028Z,79.43
2023-08-16T07:36:42.317Z,79.43
2023-08-16T07:39:10.738Z,78.94
2023-08-16T07:41:39.075Z,78.87
2023-08-16T07:44:07.748Z,78.17
2023-08-16T07:46:37.410Z,78.04
2023-08-16T07:49:05.838Z,77.98
2023-08-16T07:51:34.133Z,78.06
2023-08-16T07:54:02.389Z,77.41
2023-08-16T07:56:30.670Z,77.23
2023-08-16T07:58:58.910Z,77.97
2023-08-16T08:01:28.323Z,78.09
2023-08-16T08:03:59.770Z,78.36
2023-08-16T08:06:28.460Z,78.34
2023-08-16T08:08:57.155Z,78.65
2023-08-16T08:11:25.636Z,78.42
2023-08-16T08:13:53.954Z,77.25
2023-08-16T08:16:22.416Z,76.88
2023-08-16T08:18:50.765Z,76.29
2023-08-16T08:21:20.487Z,76.44
2023-08-16T08:23:48.857Z,74.72
2023-08-16T08:26:17.734Z,69.03
2023-08-16T08:28:46.500Z,65.86
2023-08-16T08:31:16.319Z,63.62
2023-08-16T08:33:45.794Z,64.21
2023-08-16T08:36:14.112Z,63.84
2023-08-16T08:38:44.182Z,63.64
2023-08-16T08:41:12.488Z,63.59
2023-08-16T08:43:57.531Z,64.41
2023-08-16T08:46:30.270Z,65.48
2023-08-16T08:49:01.744Z,65.22
2023-08-16T08:51:31.996Z,65.48
2023-08-16T08:54:01.781Z,66.03
2023-08-16T08:56:32.837Z,65.88
2023-08-16T08:59:13.788Z,66.89
2023-08-16T09:01:44.974Z,66.15
2023-08-16T09:04:16.571Z,66.29
2023-08-16T09:06:45.481Z,66.87
2023-08-16T09:09:16.491Z,66.54
2023-08-16T09:11:44.977Z,66.98
2023-08-16T09:14:13.412Z,66.88
2023-08-16T09:16:41.720Z,66.58
2023-08-16T09:19:15.391Z,67.09
2023-08-16T09:21:43.793Z,65.28
2023-08-16T09:24:12.671Z,63.66
2023-08-16T09:26:42.845Z,60.44
2023-08-16T09:29:11.212Z,58.64
2023-08-16T09:31:40.843Z,57.54
2023-08-16T09:34:09.441Z,56.60
2023-08-16T09:36:37.981Z,57.82
2023-08-16T09:39:10.894Z,55.75
2023-08-16T09:41:50.964Z,54.47
2023-08-16T09:44:19.825Z,55.36
2023-08-16T09:49:23.703Z,57.35
2023-08-16T09:54:25.897Z,58.50
2023-08-16T10:09:37.228Z,52.47
2023-08-16T10:12:07.955Z,53.36
2023-08-16T10:14:36.598Z,54.93
2023-08-16T10:17:07.445Z,54.22
2023-08-16T10:19:38.594Z,54.79
2023-08-16T10:22:31.195Z,55.82
2023-08-16T10:25:07.803Z,56.25
2023-08-16T10:27:39.632Z,57.66
2023-08-16T10:30:11.717Z,58.39
2023-08-16T10:32:43.482Z,59.45
2023-08-16T10:35:12.701Z,60.09
2023-08-16T10:37:41.433Z,60.13
2023-08-16T10:42:54.882Z,60.74
2023-08-16T10:45:54.167Z,60.53
2023-08-16T10:48:19.806Z,61.02
2023-08-16T10:50:57.028Z,61.78
2023-08-16T10:53:27.161Z,61.82
2023-08-16T10:55:58.217Z,61.51
2023-08-16T10:58:29.841Z,61.62
2023-08-16T11:01:00.131Z,61.77
2023-08-16T11:03:36.291Z,62.01
2023-08-16T11:06:10.191Z,61.13
2023-08-16T11:08:42.132Z,60.72
2023-08-16T11:11:11.271Z,60.79
2023-08-16T11:13:41.807Z,60.24
2023-08-16T11:16:11.216Z,60.48
2023-08-16T11:18:43.306Z,60.46
2023-08-16T11:21:15.733Z,59.66
2023-08-16T11:23:44.247Z,59.78
2023-08-16T11:26:13.563Z,59.83
2023-08-16T11:28:43.906Z,60.66
2023-08-16T11:31:13.379Z,59.07
2023-08-16T11:33:43.154Z,58.62
2023-08-16T11:36:14.883Z,58.74
2023-08-16T11:38:43.178Z,59.70
2023-08-16T11:41:11.733Z,56.35
2023-08-16T11:43:40.084Z,55.86
2023-08-16T11:46:10.005Z,56.38
2023-08-16T11:48:39.716Z,56.33
2023-08-16T11:51:12.490Z,55.47
2023-08-16T11:53:41.878Z,56.28
2023-08-16T11:56:10.928Z,55.00
2023-08-16T11:58:45.552Z,54.12
2023-08-16T12:01:16.666Z,53.98
2023-08-16T12:03:46.287Z,53.48
2023-08-16T12:06:17.408Z,52.59
2023-08-16T12:08:54.521Z,52.18
2023-08-16T12:11:31.720Z,51.79
2023-08-16T12:14:02.756Z,51.89
2023-08-16T12:16:33.805Z,52.16
2023-08-16T12:19:02.650Z,51.51
2023-08-16T12:21:30.966Z,51.95
2023-08-16T12:23:59.263Z,51.41
2023-08-16T12:26:27.581Z,52.69
2023-08-16T12:28:57.858Z,53.11
2023-08-16T12:31:26.360Z,54.03
2023-08-16T12:33:56.181Z,52.86
2023-08-16T12:36:24.736Z,51.80
2023-08-16T12:38:53.006Z,52.83
2023-08-16T12:41:21.410Z,53.10
2023-08-16T12:43:49.722Z,53.23
2023-08-16T12:46:18.129Z,52.98
2023-08-16T12:48:47.415Z,54.19
2023-08-16T12:51:18.250Z,53.14
2023-08-16T12:53:47.008Z,54.59
2023-08-16T12:56:15.594Z,54.91
2023-08-16T13:06:30.897Z,56.39
2023-08-16T13:09:04.049Z,56.63
2023-08-16T13:11:36.194Z,56.67
2023-08-16T13:14:10.899Z,56.32
2023-08-16T13:21:54.153Z,57.16
2023-08-16T13:24:38.319Z,56.90
2023-08-16T13:45:22.930Z,55.90
2023-08-16T13:47:43.510Z,54.78
2023-08-16T13:50:12.107Z,54.25
2023-08-16T13:52:41.902Z,55.45
2023-08-16T13:55:10.684Z,55.93
2023-08-16T13:57:39.346Z,55.05
2023-08-16T14:00:11.146Z,54.67
2023-08-16T14:02:42.626Z,54.75
2023-08-16T14:05:11.308Z,55.68
2023-08-16T14:07:43.066Z,55.83
2023-08-16T14:10:12.956Z,53.65
2023-08-16T14:12:41.415Z,53.04
2023-08-16T14:15:10.829Z,53.68
2023-08-16T14:17:39.234Z,53.93
2023-08-16T14:20:09.730Z,55.02
2023-08-16T14:22:38.339Z,54.63
2023-08-16T14:25:09.263Z,54.92
2023-08-16T14:27:39.142Z,54.70
2023-08-16T14:30:10.052Z,55.22
2023-08-16T14:32:39.879Z,53.46
2023-08-16T14:35:09.480Z,53.39
2023-08-16T14:37:37.917Z,52.80
2023-08-16T14:40:11.549Z,53.50
2023-08-16T14:42:43.387Z,53.98
2023-08-16T14:45:12.570Z,54.59
2023-08-16T14:47:40.876Z,55.76
2023-08-16T14:50:10.458Z,54.99
2023-08-16T14:52:38.983Z,54.78
2023-08-16T14:55:08.994Z,54.94
2023-08-16T14:57:37.665Z,55.77
2023-08-16T15:00:09.244Z,55.80
2023-08-16T15:02:37.732Z,56.33
2023-08-16T15:05:06.474Z,55.76
2023-08-16T15:07:36.222Z,55.25
2023-08-16T15:10:04.901Z,54.61
2023-08-16T15:12:36.200Z,54.45
2023-08-16T15:15:05.146Z,54.23
2023-08-16T15:17:34.991Z,54.57
2023-08-16T15:20:03.451Z,53.95
2023-08-16T15:22:31.807Z,54.38
2023-08-16T15:25:01.207Z,54.43
2023-08-16T15:27:29.687Z,54.96
2023-08-16T15:29:57.983Z,53.58
2023-08-16T15:32:29.056Z,53.97
2023-08-16T15:34:58.856Z,54.30
2023-08-16T15:37:26.250Z,54.26
2023-08-16T15:39:54.850Z,54.03
2023-08-16T15:42:23.894Z,53.62
2023-08-16T15:44:52.474Z,53.76
2023-08-16T15:47:20.907Z,53.88
2023-08-16T15:49:49.619Z,54.03
2023-08-16T15:52:19.386Z,54.33
2023-08-16T15:54:47.768Z,55.35
2023-08-16T15:57:16.134Z,55.89
2023-08-16T15:59:48.603Z,55.72
2023-08-16T16:02:17.591Z,56.19
2023-08-16T16:04:47.800Z,56.18
2023-08-16T16:07:18.328Z,56.24
2023-08-16T16:09:46.662Z,56.18
2023-08-16T16:12:14.964Z,56.58
2023-08-16T16:14:43.305Z,56.93
2023-08-16T16:17:23.935Z,57.57
2023-08-16T16:19:52.731Z,56.42
2023-08-16T16:22:22.489Z,56.27
2023-08-16T16:24:50.906Z,56.00
2023-08-16T16:27:19.249Z,55.58
2023-08-16T16:29:47.646Z,55.15
2023-08-16T16:32:16.040Z,55.89
2023-08-16T16:34:44.422Z,55.72
2023-08-16T16:37:12.847Z,55.98
2023-08-16T16:39:42.619Z,56.41
2023-08-16T16:42:10.952Z,56.52
2023-08-16T16:44:39.407Z,56.46
2023-08-16T16:47:07.773Z,56.99
2023-08-16T16:49:36.186Z,57.15
2023-08-16T16:52:04.533Z,57.93
2023-08-16T16:54:32.947Z,58.05
2023-08-16T16:57:02.702Z,58.51
2023-08-16T16:59:31.141Z,58.46
2023-08-16T17:01:59.406Z,58.88
2023-08-16T17:04:27.760Z,58.96
2023-08-16T17:06:59.029Z,59.80
2023-08-16T17:09:27.495Z,59.31
2023-08-16T17:11:55.990Z,59.53
2023-08-16T17:14:25.980Z,60.13
2023-08-16T17:16:54.340Z,60.71
2023-08-16T17:19:22.728Z,60.66
2023-08-16T17:21:51.156Z,59.97
2023-08-16T17:24:19.414Z,60.31
2023-08-16T17:26:47.717Z,58.24
2023-08-16T17:29:16.119Z,57.03
2023-08-16T17:31:45.976Z,57.75
2023-08-16T17:34:14.391Z,58.21
2023-08-16T17:36:42.734Z,57.96
2023-08-16T17:39:11.341Z,57.71
2023-08-16T17:41:39.701Z,56.79
2023-08-16T17:44:08.449Z,57.50
2023-08-16T17:46:36.823Z,55.92
2023-08-16T17:49:06.644Z,56.06
2023-08-16T17:51:34.994Z,55.73
2023-08-16T17:54:03.345Z,56.58
2023-08-16T17:56:31.714Z,56.85
2023-08-16T17:59:00.058Z,56.74
2023-08-16T18:01:28.432Z,56.28
2023-08-16T18:03:56.761Z,55.74
2023-08-16T18:06:26.636Z,55.87
2023-08-16T18:08:54.980Z,56.08
2023-08-16T18:11:23.299Z,56.05
2023-08-16T18:13:51.650Z,56.04
2023-08-16T18:16:20.113Z,55.95
2023-08-16T18:18:48.475Z,56.39
2023-08-16T18:21:16.934Z,56.55
2023-08-16T18:23:46.772Z,57.13
2023-08-16T18:26:15.198Z,57.32
2023-08-16T18:28:43.477Z,57.48
2023-08-16T18:31:11.865Z,57.56
2023-08-16T18:33:40.173Z,57.84
2023-08-16T18:36:08.559Z,58.00
2023-08-16T18:38:36.956Z,58.09
2023-08-16T18:41:08.811Z,58.44
2023-08-16T18:43:37.145Z,58.80
2023-08-16T18:46:05.488Z,59.02
2023-08-16T18:48:33.896Z,59.18
2023-08-16T18:51:02.423Z,59.45
2023-08-16T18:53:30.717Z,59.78
2023-08-16T18:55:59.034Z,60.12
2023-08-16T18:58:28.834Z,60.70
2023-08-16T19:00:58.078Z,60.95
2023-08-16T19:03:27.067Z,60.98
2023-08-16T19:05:56.315Z,61.78
2023-08-16T19:08:24.729Z,62.07
2023-08-16T19:10:53.287Z,62.58
2023-08-16T19:13:21.607Z,62.95
2023-08-16T19:15:51.310Z,63.45
2023-08-16T19:18:19.729Z,64.01
2023-08-16T19:20:48.058Z,64.39
2023-08-16T19:23:16.329Z,64.69
2023-08-16T19:25:44.672Z,65.07
2023-08-16T19:28:12.972Z,65.19
2023-08-16T19:30:41.414Z,65.62
2023-08-16T19:33:11.200Z,65.63
2023-08-16T19:35:40.176Z,66.01
2023-08-16T19:38:08.456Z,66.36
2023-08-16T19:40:37.205Z,66.64
2023-08-16T19:43:05.799Z,66.83
2023-08-16T19:45:34.261Z,67.33
2023-08-16T19:48:02.617Z,67.38
2023-08-16T19:50:32.452Z,67.59
2023-08-16T19:53:00.753Z,67.69
2023-08-16T19:55:29.256Z,67.73
2023-08-16T19:57:57.578Z,68.14
2023-08-16T20:00:29.038Z,68.12
2023-08-16T20:02:57.512Z,68.66
2023-08-16T20:05:25.998Z,68.49
2023-08-16T20:07:55.779Z,68.94
2023-08-16T20:10:24.104Z,69.03
2023-08-16T20:12:52.948Z,69.17
2023-08-16T20:15:21.393Z,68.94
2023-08-16T20:17:49.774Z,69.47
2023-08-16T20:20:18.869Z,69.81
2023-08-16T20:22:47.686Z,69.70
2023-08-16T20:25:17.656Z,69.62
2023-08-16T20:27:46.031Z,69.99
2023-08-16T20:30:15.228Z,70.29
2023-08-16T20:32:43.612Z,70.09
2023-08-16T20:35:11.965Z,70.14
2023-08-16T20:37:41.230Z,70.15
2023-08-16T20:40:11.710Z,70.80
2023-08-16T20:42:41.907Z,71.05
2023-08-16T20:45:12.393Z,70.91
2023-08-16T20:47:42.229Z,71.33
2023-08-16T20:50:12.415Z,71.38
2023-08-16T20:52:42.773Z,71.62
2023-08-16T20:55:12.000Z,71.85
2023-08-16T20:57:41.732Z,71.84
2023-08-16T21:00:11.025Z,71.78
2023-08-16T21:02:39.529Z,72.12
2023-08-16T21:05:08.146Z,72.35
2023-08-16T21:07:36.550Z,72.35
2023-08-16T21:10:05.287Z,72.35
2023-08-16T21:12:33.613Z,72.68
2023-08-16T21:15:03.920Z,72.77
2023-08-16T21:17:32.274Z,72.66
2023-08-16T21:20:00.582Z,72.82
2023-08-16T21:22:28.909Z,72.98
2023-08-16T21:24:57.442Z,73.00
2023-08-16T21:27:26.104Z,73.05
2023-08-16T21:29:54.641Z,72.97
2023-08-16T21:32:24.687Z,73.19
2023-08-16T21:34:53.067Z,73.13
2023-08-16T21:37:21.403Z,73.42
2023-08-16T21:39:51.069Z,73.43
2023-08-16T21:42:19.419Z,73.75
2023-08-16T21:44:47.748Z,73.59
2023-08-16T21:47:16.140Z,73.84
2023-08-16T21:49:45.794Z,73.54
2023-08-16T21:52:14.078Z,73.88
2023-08-16T21:54:42.326Z,74.10
2023-08-16T21:57:10.641Z,74.45
2023-08-16T21:59:38.928Z,74.38
2023-08-16T22:02:07.376Z,74.14
2023-08-16T22:04:35.670Z,74.33
2023-08-16T22:07:05.786Z,74.31
2023-08-16T22:09:35.076Z,74.21
2023-08-16T22:12:03.561Z,74.23
2023-08-16T22:14:31.867Z,74.47
2023-08-16T22:17:00.493Z,74.73
2023-08-16T22:19:28.880Z,74.70
2023-08-16T22:21:57.250Z,74.89
2023-08-16T22:24:26.955Z,74.84
2023-08-16T22:26:55.272Z,74.72
2023-08-16T22:29:23.534Z,74.85
2023-08-16T22:31:53.478Z,74.77
2023-08-16T22:34:23.301Z,74.63
2023-08-16T22:36:51.981Z,74.85
2023-08-16T22:39:20.597Z,74.73
2023-08-16T22:41:50.482Z,74.79
2023-08-16T22:44:19.277Z,75.01
2023-08-16T22:46:47.724Z,74.90
2023-08-16T22:49:16.092Z,74.59
2023-08-16T22:51:44.526Z,74.77
2023-08-16T22:54:13.005Z,74.55
2023-08-16T22:56:41.426Z,74.76
2023-08-16T22:59:11.300Z,74.61
2023-08-16T23:01:39.757Z,74.68
2023-08-16T23:04:08.133Z,74.65
2023-08-16T23:06:36.730Z,74.50
2023-08-16T23:09:06.626Z,74.39
2023-08-16T23:11:35.179Z,74.77
2023-08-16T23:14:03.575Z,74.71
2023-08-16T23:16:33.572Z,75.08
2023-08-16T23:19:02.161Z,75.58
2023-08-16T23:21:31.611Z,75.53
2023-08-16T23:23:59.953Z,75.57
2023-08-16T23:26:28.500Z,76.03
2023-08-16T23:28:56.998Z,76.14
2023-08-16T23:31:25.349Z,76.32
2023-08-16T23:33:55.643Z,76.29
2023-08-16T23:36:24.052Z,76.56
2023-08-16T23:38:52.397Z,76.54
2023-08-16T23:41:20.861Z,76.83
2023-08-16T23:43:49.246Z,77.08
2023-08-16T23:46:17.968Z,76.76
2023-08-16T23:48:46.372Z,76.93
2023-08-16T23:51:16.277Z,77.37
2023-08-16T23:53:44.742Z,77.76
2023-08-16T23:56:13.098Z,77.77
2023-08-16T23:58:42.598Z,78.49
